sensor_id;sensor_type;location;lat;lon;timestamp;temperature;humidity
11454;DHT22;5783;55.174;61.310;2022-11-22T00:01:48;17.00;28.60
11454;DHT22;5783;55.174;61.310;2022-11-22T00:04:17;17.10;28.50
11454;DHT22;5783;55.174;61.310;2022-11-22T00:06:46;17.10;28.50
11454;DHT22;5783;55.174;61.310;2022-11-22T00:09:17;17.00;28.30
11454;DHT22;5783;55.174;61.310;2022-11-22T00:11:46;17.10;28.40
11454;DHT22;5783;55.174;61.310;2022-11-22T00:14:15;17.10;28.30
11454;DHT22;5783;55.174;61.310;2022-11-22T00:16:44;17.10;28.20
11454;DHT22;5783;55.174;61.310;2022-11-22T00:19:13;17.10;28.10
11454;DHT22;5783;55.174;61.310;2022-11-22T00:21:42;17.00;28.30
11454;DHT22;5783;55.174;61.310;2022-11-22T00:24:12;16.90;28.30
11454;DHT22;5783;55.174;61.310;2022-11-22T00:26:41;16.90;28.40
11454;DHT22;5783;55.174;61.310;2022-11-22T00:29:10;16.80;28.40
11454;DHT22;5783;55.174;61.310;2022-11-22T00:31:40;16.80;28.40
11454;DHT22;5783;55.174;61.310;2022-11-22T00:34:09;16.80;28.40
11454;DHT22;5783;55.174;61.310;2022-11-22T00:36:38;16.80;28.40
11454;DHT22;5783;55.174;61.310;2022-11-22T00:39:07;16.80;28.40
11454;DHT22;5783;55.174;61.310;2022-11-22T00:41:36;16.80;28.50
11454;DHT22;5783;55.174;61.310;2022-11-22T00:44:05;16.70;28.50
11454;DHT22;5783;55.174;61.310;2022-11-22T00:46:35;16.60;28.50
11454;DHT22;5783;55.174;61.310;2022-11-22T00:49:04;16.50;28.80
11454;DHT22;5783;55.174;61.310;2022-11-22T00:51:33;16.50;29.00
11454;DHT22;5783;55.174;61.310;2022-11-22T00:54:02;16.60;28.90
11454;DHT22;5783;55.174;61.310;2022-11-22T00:56:31;16.60;28.90
11454;DHT22;5783;55.174;61.310;2022-11-22T00:59:01;16.70;28.90
11454;DHT22;5783;55.174;61.310;2022-11-22T01:01:30;16.70;29.00
11454;DHT22;5783;55.174;61.310;2022-11-22T01:04:00;16.70;28.50
11454;DHT22;5783;55.174;61.310;2022-11-22T01:06:29;16.40;28.70
11454;DHT22;5783;55.174;61.310;2022-11-22T01:08:58;16.30;29.60
11454;DHT22;5783;55.174;61.310;2022-11-22T01:11:27;16.30;29.10
11454;DHT22;5783;55.174;61.310;2022-11-22T01:13:56;16.40;28.90
11454;DHT22;5783;55.174;61.310;2022-11-22T01:16:26;16.50;28.60
11454;DHT22;5783;55.174;61.310;2022-11-22T01:18:55;16.50;28.60
11454;DHT22;5783;55.174;61.310;2022-11-22T01:21:24;16.60;28.70
11454;DHT22;5783;55.174;61.310;2022-11-22T01:23:53;16.60;28.50
11454;DHT22;5783;55.174;61.310;2022-11-22T01:26:22;16.70;28.50
11454;DHT22;5783;55.174;61.310;2022-11-22T01:28:52;16.70;28.30
11454;DHT22;5783;55.174;61.310;2022-11-22T01:31:21;16.70;28.50
11454;DHT22;5783;55.174;61.310;2022-11-22T01:33:50;16.70;28.60
11454;DHT22;5783;55.174;61.310;2022-11-22T01:36:39;16.80;28.60
11454;DHT22;5783;55.174;61.310;2022-11-22T01:39:08;16.90;28.40
11454;DHT22;5783;55.174;61.310;2022-11-22T01:41:37;16.90;28.40
11454;DHT22;5783;55.174;61.310;2022-11-22T01:44:27;16.80;28.40
11454;DHT22;5783;55.174;61.310;2022-11-22T01:46:59;16.80;28.70
11454;DHT22;5783;55.174;61.310;2022-11-22T01:52:21;16.90;28.80
11454;DHT22;5783;55.174;61.310;2022-11-22T01:57:42;17.00;28.70
11454;DHT22;5783;55.174;61.310;2022-11-22T02:00:14;17.10;28.50
11454;DHT22;5783;55.174;61.310;2022-11-22T02:03:05;17.10;28.50
11454;DHT22;5783;55.174;61.310;2022-11-22T02:05:35;17.20;28.50
11454;DHT22;5783;55.174;61.310;2022-11-22T02:11:13;17.30;28.40
11454;DHT22;5783;55.174;61.310;2022-11-22T02:13:43;17.30;28.20
11454;DHT22;5783;55.174;61.310;2022-11-22T02:16:13;17.30;28.10
11454;DHT22;5783;55.174;61.310;2022-11-22T02:18:42;17.30;28.10
11454;DHT22;5783;55.174;61.310;2022-11-22T02:21:11;17.30;28.10
11454;DHT22;5783;55.174;61.310;2022-11-22T02:24:03;17.40;28.10
11454;DHT22;5783;55.174;61.310;2022-11-22T02:26:32;17.40;28.10
11454;DHT22;5783;55.174;61.310;2022-11-22T02:29:03;17.30;28.10
11454;DHT22;5783;55.174;61.310;2022-11-22T02:31:52;17.30;28.20
11454;DHT22;5783;55.174;61.310;2022-11-22T02:34:21;17.30;28.20
11454;DHT22;5783;55.174;61.310;2022-11-22T02:36:52;17.30;28.20
11454;DHT22;5783;55.174;61.310;2022-11-22T02:39:25;17.30;28.20
11454;DHT22;5783;55.174;61.310;2022-11-22T02:41:55;17.30;28.20
11454;DHT22;5783;55.174;61.310;2022-11-22T02:44:25;17.30;28.40
11454;DHT22;5783;55.174;61.310;2022-11-22T02:46:55;17.30;28.40
11454;DHT22;5783;55.174;61.310;2022-11-22T02:49:24;17.30;28.20
11454;DHT22;5783;55.174;61.310;2022-11-22T02:51:53;17.30;28.40
11454;DHT22;5783;55.174;61.310;2022-11-22T02:54:23;17.30;28.40
11454;DHT22;5783;55.174;61.310;2022-11-22T02:56:52;17.20;28.40
11454;DHT22;5783;55.174;61.310;2022-11-22T02:59:21;17.20;28.60
11454;DHT22;5783;55.174;61.310;2022-11-22T03:01:50;17.10;28.60
11454;DHT22;5783;55.174;61.310;2022-11-22T03:04:19;17.10;28.70
11454;DHT22;5783;55.174;61.310;2022-11-22T03:07:08;17.10;28.80
11454;DHT22;5783;55.174;61.310;2022-11-22T03:09:37;17.10;28.60
11454;DHT22;5783;55.174;61.310;2022-11-22T03:12:06;17.20;28.50
11454;DHT22;5783;55.174;61.310;2022-11-22T03:14:35;17.20;28.30
11454;DHT22;5783;55.174;61.310;2022-11-22T03:17:04;17.10;28.40
11454;DHT22;5783;55.174;61.310;2022-11-22T03:19:33;17.20;28.40
11454;DHT22;5783;55.174;61.310;2022-11-22T03:22:02;17.20;28.40
11454;DHT22;5783;55.174;61.310;2022-11-22T03:24:31;17.20;28.40
11454;DHT22;5783;55.174;61.310;2022-11-22T03:27:00;17.20;28.40
11454;DHT22;5783;55.174;61.310;2022-11-22T03:29:30;17.30;28.30
11454;DHT22;5783;55.174;61.310;2022-11-22T03:31:59;17.30;28.10
11454;DHT22;5783;55.174;61.310;2022-11-22T03:34:28;17.30;28.30
11454;DHT22;5783;55.174;61.310;2022-11-22T03:36:57;17.20;28.20
11454;DHT22;5783;55.174;61.310;2022-11-22T03:39:26;17.20;28.30
11454;DHT22;5783;55.174;61.310;2022-11-22T03:41:55;17.30;28.30
11454;DHT22;5783;55.174;61.310;2022-11-22T03:44:24;17.30;28.30
11454;DHT22;5783;55.174;61.310;2022-11-22T03:46:53;17.20;28.40
11454;DHT22;5783;55.174;61.310;2022-11-22T03:49:22;17.20;28.60
11454;DHT22;5783;55.174;61.310;2022-11-22T03:51:52;17.20;28.70
11454;DHT22;5783;55.174;61.310;2022-11-22T03:54:21;17.10;28.70
11454;DHT22;5783;55.174;61.310;2022-11-22T03:56:50;17.20;28.80
11454;DHT22;5783;55.174;61.310;2022-11-22T03:59:19;17.20;28.60
11454;DHT22;5783;55.174;61.310;2022-11-22T04:01:48;17.20;28.60
11454;DHT22;5783;55.174;61.310;2022-11-22T04:04:17;17.30;28.60
11454;DHT22;5783;55.174;61.310;2022-11-22T04:06:46;17.30;28.60
11454;DHT22;5783;55.174;61.310;2022-11-22T04:09:15;17.30;28.40
11454;DHT22;5783;55.174;61.310;2022-11-22T04:11:44;17.30;28.60
11454;DHT22;5783;55.174;61.310;2022-11-22T04:14:13;17.40;28.50
11454;DHT22;5783;55.174;61.310;2022-11-22T04:17:02;17.40;28.40
11454;DHT22;5783;55.174;61.310;2022-11-22T04:19:31;17.30;28.30
11454;DHT22;5783;55.174;61.310;2022-11-22T04:22:00;17.30;28.30
11454;DHT22;5783;55.174;61.310;2022-11-22T04:24:29;17.20;28.30
11454;DHT22;5783;55.174;61.310;2022-11-22T04:27:18;17.30;28.40
11454;DHT22;5783;55.174;61.310;2022-11-22T04:29:47;17.40;28.20
11454;DHT22;5783;55.174;61.310;2022-11-22T04:32:16;17.50;28.20
11454;DHT22;5783;55.174;61.310;2022-11-22T04:35:05;17.60;28.10
11454;DHT22;5783;55.174;61.310;2022-11-22T04:37:34;17.50;26.70
11454;DHT22;5783;55.174;61.310;2022-11-22T04:40:03;17.20;26.60
11454;DHT22;5783;55.174;61.310;2022-11-22T04:42:33;17.10;27.20
11454;DHT22;5783;55.174;61.310;2022-11-22T04:45:21;16.80;27.20
11454;DHT22;5783;55.174;61.310;2022-11-22T04:47:50;16.60;27.30
11454;DHT22;5783;55.174;61.310;2022-11-22T04:50:40;16.70;28.00
11454;DHT22;5783;55.174;61.310;2022-11-22T04:53:30;16.50;27.50
11454;DHT22;5783;55.174;61.310;2022-11-22T04:55:59;16.50;27.80
11454;DHT22;5783;55.174;61.310;2022-11-22T04:58:28;16.70;27.40
11454;DHT22;5783;55.174;61.310;2022-11-22T05:00:57;16.60;27.60
11454;DHT22;5783;55.174;61.310;2022-11-22T05:03:26;16.70;27.70
11454;DHT22;5783;55.174;61.310;2022-11-22T05:05:55;16.90;26.50
11454;DHT22;5783;55.174;61.310;2022-11-22T05:08:26;17.20;24.70
11454;DHT22;5783;55.174;61.310;2022-11-22T05:10:55;17.50;24.30
11454;DHT22;5783;55.174;61.310;2022-11-22T05:13:44;17.60;23.50
11454;DHT22;5783;55.174;61.310;2022-11-22T05:16:14;17.70;23.40
11454;DHT22;5783;55.174;61.310;2022-11-22T05:18:43;17.80;23.20
11454;DHT22;5783;55.174;61.310;2022-11-22T05:21:14;17.80;22.10
11454;DHT22;5783;55.174;61.310;2022-11-22T05:23:44;17.80;22.60
11454;DHT22;5783;55.174;61.310;2022-11-22T05:26:34;17.70;23.70
11454;DHT22;5783;55.174;61.310;2022-11-22T05:29:06;17.50;24.10
11454;DHT22;5783;55.174;61.310;2022-11-22T05:31:37;17.40;24.50
11454;DHT22;5783;55.174;61.310;2022-11-22T05:34:08;17.30;24.90
11454;DHT22;5783;55.174;61.310;2022-11-22T05:36:37;17.30;25.20
11454;DHT22;5783;55.174;61.310;2022-11-22T05:39:06;17.30;25.70
11454;DHT22;5783;55.174;61.310;2022-11-22T05:41:35;17.30;25.80
11454;DHT22;5783;55.174;61.310;2022-11-22T05:44:05;17.30;25.70
11454;DHT22;5783;55.174;61.310;2022-11-22T05:46:34;17.20;25.80
11454;DHT22;5783;55.174;61.310;2022-11-22T05:49:03;17.20;25.90
11454;DHT22;5783;55.174;61.310;2022-11-22T05:51:32;17.20;26.10
11454;DHT22;5783;55.174;61.310;2022-11-22T05:54:02;17.20;26.30
11454;DHT22;5783;55.174;61.310;2022-11-22T05:56:31;17.30;26.40
11454;DHT22;5783;55.174;61.310;2022-11-22T05:59:00;17.40;26.60
11454;DHT22;5783;55.174;61.310;2022-11-22T06:01:30;17.50;26.50
11454;DHT22;5783;55.174;61.310;2022-11-22T06:03:59;17.70;26.60
11454;DHT22;5783;55.174;61.310;2022-11-22T06:06:28;17.80;26.40
11454;DHT22;5783;55.174;61.310;2022-11-22T06:08:59;17.80;26.60
11454;DHT22;5783;55.174;61.310;2022-11-22T06:11:28;17.80;26.70
11454;DHT22;5783;55.174;61.310;2022-11-22T06:14:17;17.80;27.00
11454;DHT22;5783;55.174;61.310;2022-11-22T06:16:46;17.80;27.50
11454;DHT22;5783;55.174;61.310;2022-11-22T06:19:15;17.90;27.40
11454;DHT22;5783;55.174;61.310;2022-11-22T06:21:44;18.00;28.00
11454;DHT22;5783;55.174;61.310;2022-11-22T06:24:13;18.10;28.00
11454;DHT22;5783;55.174;61.310;2022-11-22T06:26:43;18.10;32.40
11454;DHT22;5783;55.174;61.310;2022-11-22T06:29:12;18.10;37.20
11454;DHT22;5783;55.174;61.310;2022-11-22T06:31:42;18.00;34.50
11454;DHT22;5783;55.174;61.310;2022-11-22T06:34:11;17.90;33.00
11454;DHT22;5783;55.174;61.310;2022-11-22T06:36:41;17.70;40.20
11454;DHT22;5783;55.174;61.310;2022-11-22T06:39:10;17.40;27.70
11454;DHT22;5783;55.174;61.310;2022-11-22T06:41:39;17.20;26.70
11454;DHT22;5783;55.174;61.310;2022-11-22T06:44:09;17.00;26.90
11454;DHT22;5783;55.174;61.310;2022-11-22T06:46:38;16.70;26.90
11454;DHT22;5783;55.174;61.310;2022-11-22T06:49:07;16.50;27.20
11454;DHT22;5783;55.174;61.310;2022-11-22T06:51:36;16.40;27.40
11454;DHT22;5783;55.174;61.310;2022-11-22T06:54:05;16.40;27.70
11454;DHT22;5783;55.174;61.310;2022-11-22T06:56:54;16.40;27.90
11454;DHT22;5783;55.174;61.310;2022-11-22T06:59:23;16.30;27.70
11454;DHT22;5783;55.174;61.310;2022-11-22T07:01:52;16.30;28.00
11454;DHT22;5783;55.174;61.310;2022-11-22T07:04:21;16.30;27.80
11454;DHT22;5783;55.174;61.310;2022-11-22T07:06:50;16.40;27.60
11454;DHT22;5783;55.174;61.310;2022-11-22T07:09:22;16.40;27.50
11454;DHT22;5783;55.174;61.310;2022-11-22T07:11:51;16.40;27.50
11454;DHT22;5783;55.174;61.310;2022-11-22T07:14:20;16.50;27.50
11454;DHT22;5783;55.174;61.310;2022-11-22T07:16:49;16.40;27.50
11454;DHT22;5783;55.174;61.310;2022-11-22T07:19:18;16.50;27.50
11454;DHT22;5783;55.174;61.310;2022-11-22T07:21:47;16.50;27.50
11454;DHT22;5783;55.174;61.310;2022-11-22T07:24:16;16.40;27.40
11454;DHT22;5783;55.174;61.310;2022-11-22T07:26:45;16.30;27.70
11454;DHT22;5783;55.174;61.310;2022-11-22T07:29:14;16.30;27.70
11454;DHT22;5783;55.174;61.310;2022-11-22T07:31:44;16.30;27.70
11454;DHT22;5783;55.174;61.310;2022-11-22T07:34:13;16.30;27.80
11454;DHT22;5783;55.174;61.310;2022-11-22T07:36:43;16.20;27.70
11454;DHT22;5783;55.174;61.310;2022-11-22T07:39:12;16.20;27.70
11454;DHT22;5783;55.174;61.310;2022-11-22T07:41:41;16.20;27.80
11454;DHT22;5783;55.174;61.310;2022-11-22T07:44:10;16.20;27.70
11454;DHT22;5783;55.174;61.310;2022-11-22T07:46:39;16.20;27.60
11454;DHT22;5783;55.174;61.310;2022-11-22T07:49:08;16.20;27.70
11454;DHT22;5783;55.174;61.310;2022-11-22T07:51:37;16.20;27.70
11454;DHT22;5783;55.174;61.310;2022-11-22T07:54:09;16.20;27.90
11454;DHT22;5783;55.174;61.310;2022-11-22T07:56:37;16.10;27.90
11454;DHT22;5783;55.174;61.310;2022-11-22T07:59:06;16.20;28.80
11454;DHT22;5783;55.174;61.310;2022-11-22T08:01:35;16.20;28.50
11454;DHT22;5783;55.174;61.310;2022-11-22T08:04:05;16.30;28.40
11454;DHT22;5783;55.174;61.310;2022-11-22T08:06:35;16.30;28.30
11454;DHT22;5783;55.174;61.310;2022-11-22T08:09:04;16.40;28.10
11454;DHT22;5783;55.174;61.310;2022-11-22T08:11:33;16.40;28.30
11454;DHT22;5783;55.174;61.310;2022-11-22T08:14:03;16.40;28.00
11454;DHT22;5783;55.174;61.310;2022-11-22T08:16:32;16.40;27.90
11454;DHT22;5783;55.174;61.310;2022-11-22T08:19:01;16.50;28.00
11454;DHT22;5783;55.174;61.310;2022-11-22T08:21:30;16.50;28.10
11454;DHT22;5783;55.174;61.310;2022-11-22T08:23:59;16.50;28.10
11454;DHT22;5783;55.174;61.310;2022-11-22T08:26:28;16.50;28.00
11454;DHT22;5783;55.174;61.310;2022-11-22T08:28:58;16.60;27.90
11454;DHT22;5783;55.174;61.310;2022-11-22T08:31:27;16.50;27.60
11454;DHT22;5783;55.174;61.310;2022-11-22T08:33:56;16.40;27.30
11454;DHT22;5783;55.174;61.310;2022-11-22T08:36:45;16.30;27.70
11454;DHT22;5783;55.174;61.310;2022-11-22T08:39:14;16.30;27.80
11454;DHT22;5783;55.174;61.310;2022-11-22T08:41:43;16.30;27.80
11454;DHT22;5783;55.174;61.310;2022-11-22T08:44:13;16.40;27.50
11454;DHT22;5783;55.174;61.310;2022-11-22T08:46:42;16.30;27.70
11454;DHT22;5783;55.174;61.310;2022-11-22T08:49:11;16.30;27.80
11454;DHT22;5783;55.174;61.310;2022-11-22T08:51:40;16.20;27.70
11454;DHT22;5783;55.174;61.310;2022-11-22T08:54:12;16.20;27.80
11454;DHT22;5783;55.174;61.310;2022-11-22T08:56:41;16.30;27.70
11454;DHT22;5783;55.174;61.310;2022-11-22T08:59:10;16.40;27.70
11454;DHT22;5783;55.174;61.310;2022-11-22T09:01:40;16.40;27.80
11454;DHT22;5783;55.174;61.310;2022-11-22T09:04:09;16.40;27.80
11454;DHT22;5783;55.174;61.310;2022-11-22T09:06:38;16.30;27.70
11454;DHT22;5783;55.174;61.310;2022-11-22T09:09:07;16.40;27.90
11454;DHT22;5783;55.174;61.310;2022-11-22T09:11:36;16.40;27.90
11454;DHT22;5783;55.174;61.310;2022-11-22T09:14:05;16.30;28.10
11454;DHT22;5783;55.174;61.310;2022-11-22T09:16:34;16.30;28.10
11454;DHT22;5783;55.174;61.310;2022-11-22T09:19:03;16.40;28.10
11454;DHT22;5783;55.174;61.310;2022-11-22T09:21:33;16.40;28.20
11454;DHT22;5783;55.174;61.310;2022-11-22T09:24:02;16.30;28.20
11454;DHT22;5783;55.174;61.310;2022-11-22T09:26:31;16.30;28.00
11454;DHT22;5783;55.174;61.310;2022-11-22T09:29:00;16.40;27.90
11454;DHT22;5783;55.174;61.310;2022-11-22T09:31:30;16.40;28.10
11454;DHT22;5783;55.174;61.310;2022-11-22T09:33:59;16.50;28.00
11454;DHT22;5783;55.174;61.310;2022-11-22T09:36:29;16.50;27.80
11454;DHT22;5783;55.174;61.310;2022-11-22T09:38:58;16.60;27.70
11454;DHT22;5783;55.174;61.310;2022-11-22T09:56:16;16.60;28.00
11454;DHT22;5783;55.174;61.310;2022-11-22T10:01:41;16.70;28.00
11454;DHT22;5783;55.174;61.310;2022-11-22T10:07:03;16.70;28.50
11454;DHT22;5783;55.174;61.310;2022-11-22T10:21:30;16.80;28.00
11454;DHT22;5783;55.174;61.310;2022-11-22T10:23:59;16.80;27.90
11454;DHT22;5783;55.174;61.310;2022-11-22T10:26:48;16.70;27.90
11454;DHT22;5783;55.174;61.310;2022-11-22T11:05:13;16.90;28.60
11454;DHT22;5783;55.174;61.310;2022-11-22T11:10:34;16.70;28.20
11454;DHT22;5783;55.174;61.310;2022-11-22T11:13:10;16.60;28.80
11454;DHT22;5783;55.174;61.310;2022-11-22T11:15:56;16.60;28.70
11454;DHT22;5783;55.174;61.310;2022-11-22T11:19:17;16.60;28.70
11454;DHT22;5783;55.174;61.310;2022-11-22T11:21:16;16.50;28.00
11454;DHT22;5783;55.174;61.310;2022-11-22T11:23:45;16.40;28.00
11454;DHT22;5783;55.174;61.310;2022-11-22T11:26:17;16.30;27.90
11454;DHT22;5783;55.174;61.310;2022-11-22T11:28:47;16.30;27.80
11454;DHT22;5783;55.174;61.310;2022-11-22T11:31:17;16.20;28.20
11454;DHT22;5783;55.174;61.310;2022-11-22T11:33:47;16.20;28.40
11454;DHT22;5783;55.174;61.310;2022-11-22T11:39:43;16.20;28.50
11454;DHT22;5783;55.174;61.310;2022-11-22T11:41:39;16.20;28.50
11454;DHT22;5783;55.174;61.310;2022-11-22T11:44:22;16.20;28.30
11454;DHT22;5783;55.174;61.310;2022-11-22T11:46:43;16.20;27.90
11454;DHT22;5783;55.174;61.310;2022-11-22T11:52:25;16.20;28.10
11454;DHT22;5783;55.174;61.310;2022-11-22T11:54:57;16.20;28.70
11454;DHT22;5783;55.174;61.310;2022-11-22T12:00:37;16.20;28.90
11454;DHT22;5783;55.174;61.310;2022-11-22T12:03:10;16.30;29.10
11454;DHT22;5783;55.174;61.310;2022-11-22T12:05:39;16.40;28.60
11454;DHT22;5783;55.174;61.310;2022-11-22T12:08:28;16.40;28.60
11454;DHT22;5783;55.174;61.310;2022-11-22T12:13:52;16.40;28.60
11454;DHT22;5783;55.174;61.310;2022-11-22T12:20:21;16.20;28.30
11454;DHT22;5783;55.174;61.310;2022-11-22T12:22:24;16.10;28.50
11454;DHT22;5783;55.174;61.310;2022-11-22T12:27:24;16.00;28.50
11454;DHT22;5783;55.174;61.310;2022-11-22T12:29:54;16.10;28.70
11454;DHT22;5783;55.174;61.310;2022-11-22T12:35:36;16.30;28.10
11454;DHT22;5783;55.174;61.310;2022-11-22T12:43:34;16.30;28.00
11454;DHT22;5783;55.174;61.310;2022-11-22T12:49:14;16.50;28.20
11454;DHT22;5783;55.174;61.310;2022-11-22T13:06:13;16.60;28.70
11454;DHT22;5783;55.174;61.310;2022-11-22T13:17:34;16.60;28.10
11454;DHT22;5783;55.174;61.310;2022-11-22T13:32:21;16.60;28.00
11454;DHT22;5783;55.174;61.310;2022-11-22T13:40:51;16.50;28.80
11454;DHT22;5783;55.174;61.310;2022-11-22T13:46:45;16.50;29.00
11454;DHT22;5783;55.174;61.310;2022-11-22T13:51:18;16.50;28.60
11454;DHT22;5783;55.174;61.310;2022-11-22T13:53:50;16.50;28.20
11454;DHT22;5783;55.174;61.310;2022-11-22T13:59:31;16.50;28.30
11454;DHT22;5783;55.174;61.310;2022-11-22T14:02:02;16.50;28.00
11454;DHT22;5783;55.174;61.310;2022-11-22T14:07:40;16.40;27.80
11454;DHT22;5783;55.174;61.310;2022-11-22T14:22:48;16.40;27.70
11454;DHT22;5783;55.174;61.310;2022-11-22T14:31:35;16.40;28.00
11454;DHT22;5783;55.174;61.310;2022-11-22T14:34:25;16.40;27.70
11454;DHT22;5783;55.174;61.310;2022-11-22T14:37:55;16.50;27.60
11454;DHT22;5783;55.174;61.310;2022-11-22T14:48:23;16.30;28.00
11454;DHT22;5783;55.174;61.310;2022-11-22T14:54:04;15.70;28.40
11454;DHT22;5783;55.174;61.310;2022-11-22T14:56:53;15.50;32.30
11454;DHT22;5783;55.174;61.310;2022-11-22T15:17:40;15.10;38.40
11454;DHT22;5783;55.174;61.310;2022-11-22T15:29:00;15.00;32.50
11454;DHT22;5783;55.174;61.310;2022-11-22T15:31:49;15.10;32.40
11454;DHT22;5783;55.174;61.310;2022-11-22T15:34:20;15.10;32.00
11454;DHT22;5783;55.174;61.310;2022-11-22T15:39:57;15.10;32.10
11454;DHT22;5783;55.174;61.310;2022-11-22T15:42:26;15.10;32.10
11454;DHT22;5783;55.174;61.310;2022-11-22T15:44:56;15.10;32.40
11454;DHT22;5783;55.174;61.310;2022-11-22T15:47:25;15.10;32.40
11454;DHT22;5783;55.174;61.310;2022-11-22T15:49:55;15.20;32.30
11454;DHT22;5783;55.174;61.310;2022-11-22T15:55:16;15.20;32.30
11454;DHT22;5783;55.174;61.310;2022-11-22T15:57:49;15.10;32.20
11454;DHT22;5783;55.174;61.310;2022-11-22T16:00:22;15.10;32.50
11454;DHT22;5783;55.174;61.310;2022-11-22T16:03:18;15.10;32.50
11454;DHT22;5783;55.174;61.310;2022-11-22T16:05:41;15.10;32.60
11454;DHT22;5783;55.174;61.310;2022-11-22T16:08:12;15.20;32.60
11454;DHT22;5783;55.174;61.310;2022-11-22T16:10:46;15.20;32.60
11454;DHT22;5783;55.174;61.310;2022-11-22T16:13:34;15.20;32.30
11454;DHT22;5783;55.174;61.310;2022-11-22T16:16:58;15.20;32.30
11454;DHT22;5783;55.174;61.310;2022-11-22T16:22:23;15.20;32.20
11454;DHT22;5783;55.174;61.310;2022-11-22T16:24:36;15.20;32.20
11454;DHT22;5783;55.174;61.310;2022-11-22T16:29:55;15.20;32.10
11454;DHT22;5783;55.174;61.310;2022-11-22T16:32:26;15.10;32.10
11454;DHT22;5783;55.174;61.310;2022-11-22T16:34:55;15.20;32.20
11454;DHT22;5783;55.174;61.310;2022-11-22T16:37:44;15.20;32.50
11454;DHT22;5783;55.174;61.310;2022-11-22T16:40:14;15.20;32.30
11454;DHT22;5783;55.174;61.310;2022-11-22T16:42:43;15.30;32.20
11454;DHT22;5783;55.174;61.310;2022-11-22T16:45:32;15.30;32.10
11454;DHT22;5783;55.174;61.310;2022-11-22T16:48:01;15.30;32.10
11454;DHT22;5783;55.174;61.310;2022-11-22T16:50:31;15.30;32.30
11454;DHT22;5783;55.174;61.310;2022-11-22T16:53:00;15.30;32.30
11454;DHT22;5783;55.174;61.310;2022-11-22T16:55:29;15.30;32.30
11454;DHT22;5783;55.174;61.310;2022-11-22T16:57:58;15.40;32.10
11454;DHT22;5783;55.174;61.310;2022-11-22T17:00:27;15.40;32.00
11454;DHT22;5783;55.174;61.310;2022-11-22T17:02:58;15.40;31.20
11454;DHT22;5783;55.174;61.310;2022-11-22T17:05:27;15.40;31.20
11454;DHT22;5783;55.174;61.310;2022-11-22T17:07:56;15.40;31.20
11454;DHT22;5783;55.174;61.310;2022-11-22T17:10:25;15.40;31.80
11454;DHT22;5783;55.174;61.310;2022-11-22T17:12:54;15.40;31.60
11454;DHT22;5783;55.174;61.310;2022-11-22T17:15:24;15.40;32.00
11454;DHT22;5783;55.174;61.310;2022-11-22T17:17:54;15.40;32.30
11454;DHT22;5783;55.174;61.310;2022-11-22T17:20:23;15.40;31.30
11454;DHT22;5783;55.174;61.310;2022-11-22T17:22:52;15.40;32.00
11454;DHT22;5783;55.174;61.310;2022-11-22T17:25:21;15.40;32.00
11454;DHT22;5783;55.174;61.310;2022-11-22T17:27:51;15.40;31.70
11454;DHT22;5783;55.174;61.310;2022-11-22T17:30:20;15.40;31.80
11454;DHT22;5783;55.174;61.310;2022-11-22T17:32:49;15.40;32.40
11454;DHT22;5783;55.174;61.310;2022-11-22T17:35:18;15.40;32.30
11454;DHT22;5783;55.174;61.310;2022-11-22T17:37:51;15.40;32.00
11454;DHT22;5783;55.174;61.310;2022-11-22T17:40:21;15.40;32.30
11454;DHT22;5783;55.174;61.310;2022-11-22T17:42:50;15.40;32.40
11454;DHT22;5783;55.174;61.310;2022-11-22T17:45:19;15.40;32.50
11454;DHT22;5783;55.174;61.310;2022-11-22T17:47:48;15.40;32.40
11454;DHT22;5783;55.174;61.310;2022-11-22T17:50:17;15.40;32.50
11454;DHT22;5783;55.174;61.310;2022-11-22T17:52:46;15.40;32.60
11454;DHT22;5783;55.174;61.310;2022-11-22T17:55:15;15.40;32.70
11454;DHT22;5783;55.174;61.310;2022-11-22T17:57:45;15.40;32.90
11454;DHT22;5783;55.174;61.310;2022-11-22T18:00:14;15.40;33.00
11454;DHT22;5783;55.174;61.310;2022-11-22T18:02:44;15.40;32.80
11454;DHT22;5783;55.174;61.310;2022-11-22T18:05:13;15.40;32.70
11454;DHT22;5783;55.174;61.310;2022-11-22T18:07:42;15.50;32.60
11454;DHT22;5783;55.174;61.310;2022-11-22T18:10:11;15.50;32.20
11454;DHT22;5783;55.174;61.310;2022-11-22T18:12:40;15.50;32.70
11454;DHT22;5783;55.174;61.310;2022-11-22T18:15:10;15.50;32.10
11454;DHT22;5783;55.174;61.310;2022-11-22T18:17:39;15.50;32.10
11454;DHT22;5783;55.174;61.310;2022-11-22T18:20:09;15.50;31.90
11454;DHT22;5783;55.174;61.310;2022-11-22T18:22:38;15.50;32.00
11454;DHT22;5783;55.174;61.310;2022-11-22T18:25:08;15.50;31.90
11454;DHT22;5783;55.174;61.310;2022-11-22T18:27:37;15.50;31.80
11454;DHT22;5783;55.174;61.310;2022-11-22T18:30:08;15.50;31.50
11454;DHT22;5783;55.174;61.310;2022-11-22T18:32:38;15.50;31.40
11454;DHT22;5783;55.174;61.310;2022-11-22T18:35:08;15.40;31.40
11454;DHT22;5783;55.174;61.310;2022-11-22T18:37:37;15.40;31.60
11454;DHT22;5783;55.174;61.310;2022-11-22T18:40:09;15.40;31.70
11454;DHT22;5783;55.174;61.310;2022-11-22T18:42:39;15.40;31.70
11454;DHT22;5783;55.174;61.310;2022-11-22T18:45:09;15.40;31.80
11454;DHT22;5783;55.174;61.310;2022-11-22T18:47:38;15.40;31.80
11454;DHT22;5783;55.174;61.310;2022-11-22T18:50:08;15.40;31.80
11454;DHT22;5783;55.174;61.310;2022-11-22T18:52:37;15.40;31.70
11454;DHT22;5783;55.174;61.310;2022-11-22T18:55:08;15.40;32.20
11454;DHT22;5783;55.174;61.310;2022-11-22T18:57:39;15.30;32.00
11454;DHT22;5783;55.174;61.310;2022-11-22T19:00:09;15.30;31.80
11454;DHT22;5783;55.174;61.310;2022-11-22T19:02:39;15.30;31.80
11454;DHT22;5783;55.174;61.310;2022-11-22T19:05:09;15.30;31.90
11454;DHT22;5783;55.174;61.310;2022-11-22T19:07:38;15.30;31.60
11454;DHT22;5783;55.174;61.310;2022-11-22T19:10:08;15.30;32.00
11454;DHT22;5783;55.174;61.310;2022-11-22T19:12:37;15.30;31.70
11454;DHT22;5783;55.174;61.310;2022-11-22T19:15:07;15.30;31.80
11454;DHT22;5783;55.174;61.310;2022-11-22T19:17:56;15.30;31.80
11454;DHT22;5783;55.174;61.310;2022-11-22T19:20:26;15.30;31.70
11454;DHT22;5783;55.174;61.310;2022-11-22T19:22:55;15.30;31.50
11454;DHT22;5783;55.174;61.310;2022-11-22T19:25:24;15.30;31.50
11454;DHT22;5783;55.174;61.310;2022-11-22T19:27:53;15.40;31.80
11454;DHT22;5783;55.174;61.310;2022-11-22T19:30:22;15.40;31.50
11454;DHT22;5783;55.174;61.310;2022-11-22T19:32:54;15.40;31.30
11454;DHT22;5783;55.174;61.310;2022-11-22T19:35:24;15.40;30.80
11454;DHT22;5783;55.174;61.310;2022-11-22T19:37:53;15.40;31.20
11454;DHT22;5783;55.174;61.310;2022-11-22T19:40:24;15.40;31.30
11454;DHT22;5783;55.174;61.310;2022-11-22T19:42:53;15.40;31.20
11454;DHT22;5783;55.174;61.310;2022-11-22T19:45:22;15.40;31.60
11454;DHT22;5783;55.174;61.310;2022-11-22T19:47:51;15.40;31.50